SLAYR40 KISO-KCHS
Flight info
| Callsign | SLAYR40 |
|---|---|
| Flight time | N/A |
| Altitude | 4000 |
| Route | KISO DCT KCHS |
| Aircraft | H60/L-VD/C |
Departure
| Time | 2026-05-06 22:49 |
|---|---|
| Airport | Kinston Regional Jetport At Stallings Field (KISO) |
Arrival
| Time | N/A |
|---|---|
| Airport | Charleston International Airport (KCHS) |
| Time | Latitude | Longitude | Altitude | Speed | Heading |
|---|---|---|---|---|---|
| 2026-05-06 22:31 | 35.32098 | -77.61698 | 96 ft | 0 kts | 82° |
| 2026-05-06 22:41 | 35.32098 | -77.61697 | 96 ft | 0 kts | 43° |
| 2026-05-06 22:43 | 35.32098 | -77.61698 | 96 ft | 0 kts | 51° |
| 2026-05-06 22:47 | 35.32096 | -77.61696 | 96 ft | 0 kts | 330° |
| 2026-05-06 22:48 | 35.32098 | -77.61700 | 99 ft | 3 kts | 320° |
| 2026-05-06 22:48 | 35.32082 | -77.61709 | 116 ft | 10 kts | 173° |
| 2026-05-06 22:48 | 35.31951 | -77.61680 | 203 ft | 28 kts | 169° |
| 2026-05-06 22:49 | 35.31660 | -77.61603 | 424 ft | 61 kts | 169° |
| 2026-05-06 22:49 | 35.31107 | -77.61490 | 707 ft | 94 kts | 173° |
| 2026-05-06 22:49 | 35.30408 | -77.61353 | 1055 ft | 107 kts | 177° |
| 2026-05-06 22:49 | 35.29663 | -77.61217 | 1312 ft | 110 kts | 175° |
| 2026-05-06 22:50 | 35.28878 | -77.61105 | 1416 ft | 114 kts | 140° |
| 2026-05-06 22:50 | 35.28082 | -77.60977 | 1300 ft | 111 kts | 177° |
| 2026-05-06 22:50 | 35.27406 | -77.60900 | 1915 ft | 89 kts | 180° |
| 2026-05-06 22:50 | 35.26790 | -77.60867 | 1890 ft | 87 kts | 181° |
| 2026-05-06 22:51 | 35.26185 | -77.60822 | 2116 ft | 89 kts | 178° |
| 2026-05-06 22:51 | 35.25574 | -77.60732 | 2421 ft | 88 kts | 172° |
| 2026-05-06 22:51 | 35.24957 | -77.60700 | 2574 ft | 86 kts | 175° |
| 2026-05-06 22:51 | 35.24357 | -77.60686 | 2735 ft | 87 kts | 180° |
| 2026-05-06 22:52 | 35.23727 | -77.60705 | 2974 ft | 91 kts | 184° |
| 2026-05-06 22:52 | 35.23110 | -77.60762 | 3186 ft | 86 kts | 182° |
| 2026-05-06 22:52 | 35.22498 | -77.60879 | 3379 ft | 92 kts | 176° |
| 2026-05-06 22:52 | 35.21818 | -77.61049 | 3487 ft | 113 kts | 182° |
| 2026-05-06 22:53 | 35.20984 | -77.61294 | 3518 ft | 132 kts | 192° |
| 2026-05-06 22:53 | 35.20044 | -77.61531 | 3600 ft | 146 kts | 182° |
| 2026-05-06 22:53 | 35.19067 | -77.61607 | 3771 ft | 124 kts | 184° |
| 2026-05-06 22:53 | 35.18296 | -77.61692 | 4047 ft | 110 kts | 180° |
| 2026-05-06 22:54 | 35.17487 | -77.61742 | 4083 ft | 106 kts | 179° |
| 2026-05-06 22:54 | 35.16775 | -77.61699 | 4048 ft | 115 kts | 175° |
| 2026-05-06 22:54 | 35.15982 | -77.61696 | 4035 ft | 115 kts | 180° |
| 2026-05-06 22:54 | 35.15183 | -77.61753 | 4029 ft | 112 kts | 186° |
| 2026-05-06 22:55 | 35.14397 | -77.61847 | 4027 ft | 114 kts | 187° |
| 2026-05-06 22:55 | 35.13633 | -77.61959 | 4030 ft | 109 kts | 190° |
| 2026-05-06 22:55 | 35.12862 | -77.62142 | 4024 ft | 117 kts | 202° |
| 2026-05-06 22:55 | 35.12123 | -77.62577 | 4026 ft | 120 kts | 215° |
| 2026-05-06 22:56 | 35.11485 | -77.63083 | 4057 ft | 103 kts | 214° |
| 2026-05-06 22:56 | 35.10868 | -77.63593 | 4046 ft | 112 kts | 203° |
| 2026-05-06 22:56 | 35.10252 | -77.64126 | 4043 ft | 110 kts | 209° |
| 2026-05-06 22:56 | 35.09648 | -77.64688 | 4037 ft | 109 kts | 214° |
| 2026-05-06 22:57 | 35.09062 | -77.65274 | 4041 ft | 109 kts | 216° |
| 2026-05-06 22:57 | 35.08482 | -77.65890 | 4036 ft | 112 kts | 219° |
| 2026-05-06 22:57 | 35.07895 | -77.66494 | 4048 ft | 89 kts | 121° |
| 2026-05-06 22:57 | 35.07333 | -77.66825 | 4028 ft | 115 kts | 208° |
| 2026-05-06 22:58 | 35.06614 | -77.67254 | 4034 ft | 111 kts | 206° |
| 2026-05-06 22:58 | 35.05932 | -77.67695 | 4035 ft | 112 kts | 197° |
| 2026-05-06 22:58 | 35.05260 | -77.68175 | 4037 ft | 111 kts | 209° |
| 2026-05-06 22:58 | 35.04657 | -77.68636 | 4035 ft | 113 kts | 214° |
| 2026-05-06 22:59 | 35.04012 | -77.69150 | 4037 ft | 112 kts | 205° |
| 2026-05-06 22:59 | 35.03363 | -77.69692 | 4035 ft | 112 kts | 213° |
| 2026-05-06 22:59 | 35.02687 | -77.70047 | 3979 ft | 126 kts | 205° |
| 2026-05-06 22:59 | 35.01922 | -77.70378 | 4039 ft | 110 kts | 210° |
| 2026-05-06 23:00 | 35.01189 | -77.70702 | 4048 ft | 115 kts | 209° |
| 2026-05-06 23:00 | 35.00461 | -77.71027 | 4047 ft | 112 kts | 194° |
| 2026-05-06 23:00 | 34.99734 | -77.71388 | 4047 ft | 112 kts | 199° |
| 2026-05-06 23:00 | 34.98962 | -77.71728 | 4042 ft | 117 kts | 200° |
| 2026-05-06 23:01 | 34.98208 | -77.72010 | 4037 ft | 113 kts | 209° |
| 2026-05-06 23:01 | 34.97455 | -77.72286 | 4040 ft | 115 kts | 210° |
| 2026-05-06 23:01 | 34.96708 | -77.72564 | 4041 ft | 113 kts | 208° |
| 2026-05-06 23:01 | 34.95952 | -77.72854 | 4042 ft | 113 kts | 206° |
| 2026-05-06 23:02 | 34.95208 | -77.73143 | 4039 ft | 111 kts | 214° |
| 2026-05-06 23:02 | 34.94453 | -77.73443 | 4037 ft | 119 kts | 217° |
| 2026-05-06 23:02 | 34.93707 | -77.73804 | 4053 ft | 113 kts | 217° |
| 2026-05-06 23:02 | 34.92965 | -77.74154 | 4048 ft | 115 kts | 220° |
| 2026-05-06 23:03 | 34.92214 | -77.74500 | 4047 ft | 117 kts | 224° |
| 2026-05-06 23:03 | 34.91456 | -77.74851 | 4057 ft | 112 kts | 220° |
| 2026-05-06 23:03 | 34.90703 | -77.75193 | 4050 ft | 117 kts | 220° |
| 2026-05-06 23:03 | 34.89940 | -77.75530 | 4048 ft | 117 kts | 221° |
| 2026-05-06 23:04 | 34.89170 | -77.75864 | 4044 ft | 119 kts | 224° |
| 2026-05-06 23:04 | 34.88394 | -77.76203 | 4043 ft | 118 kts | 225° |
| 2026-05-06 23:04 | 34.87609 | -77.76568 | 4048 ft | 120 kts | 226° |
| 2026-05-06 23:04 | 34.86827 | -77.76970 | 4047 ft | 124 kts | 230° |
| 2026-05-06 23:05 | 34.86063 | -77.77391 | 4050 ft | 121 kts | 229° |
| 2026-05-06 23:05 | 34.85304 | -77.77816 | 4050 ft | 120 kts | 226° |
| 2026-05-06 23:05 | 34.84555 | -77.78253 | 4046 ft | 119 kts | 226° |
| 2026-05-06 23:05 | 34.83821 | -77.78680 | 4040 ft | 120 kts | 229° |
| 2026-05-06 23:06 | 34.83067 | -77.79130 | 4046 ft | 118 kts | 230° |
| 2026-05-06 23:06 | 34.82319 | -77.79573 | 4047 ft | 120 kts | 227° |
| 2026-05-06 23:06 | 34.81584 | -77.80000 | 4040 ft | 119 kts | 230° |
| 2026-05-06 23:06 | 34.80831 | -77.80443 | 4041 ft | 121 kts | 228° |
| 2026-05-06 23:07 | 34.80078 | -77.80883 | 4046 ft | 121 kts | 231° |
| 2026-05-06 23:07 | 34.79314 | -77.81330 | 4033 ft | 121 kts | 232° |